sensor_id;sensor_type;location;lat;lon;timestamp;pressure;altitude;pressure_sealevel;temperature;humidity
70103;BME280;57470;50.034;15.256;2024-01-07T00:00:34;98834.84;;;3.40;93.71
70103;BME280;57470;50.034;15.256;2024-01-07T00:02:59;98818.94;;;2.15;95.84
70103;BME280;57470;50.034;15.256;2024-01-07T00:05:24;98832.56;;;3.15;96.41
70103;BME280;57470;50.034;15.256;2024-01-07T00:07:50;98827.84;;;2.50;96.11
70103;BME280;57470;50.034;15.256;2024-01-07T00:10:16;98829.94;;;2.60;96.10
70103;BME280;57470;50.034;15.256;2024-01-07T00:12:41;98825.41;;;2.45;96.28
70103;BME280;57470;50.034;15.256;2024-01-07T00:15:07;98832.34;;;2.28;97.79
70103;BME280;57470;50.034;15.256;2024-01-07T00:17:32;98827.59;;;2.36;98.70
70103;BME280;57470;50.034;15.256;2024-01-07T00:19:57;98823.31;;;1.96;100.00
70103;BME280;57470;50.034;15.256;2024-01-07T00:22:23;98835.66;;;2.87;98.29
70103;BME280;57470;50.034;15.256;2024-01-07T00:24:48;98827.41;;;2.21;98.27
70103;BME280;57470;50.034;15.256;2024-01-07T00:27:13;98820.69;;;1.75;100.00
70103;BME280;57470;50.034;15.256;2024-01-07T00:29:39;98832.56;;;2.23;99.57
70103;BME280;57470;50.034;15.256;2024-01-07T00:32:04;98827.38;;;1.82;100.00
70103;BME280;57470;50.034;15.256;2024-01-07T00:34:30;98828.72;;;1.52;100.00
70103;BME280;57470;50.034;15.256;2024-01-07T00:36:55;98825.78;;;2.38;100.00
70103;BME280;57470;50.034;15.256;2024-01-07T00:39:21;98844.69;;;2.82;99.14
70103;BME280;57470;50.034;15.256;2024-01-07T00:41:46;98839.75;;;2.57;97.81
70103;BME280;57470;50.034;15.256;2024-01-07T00:44:12;98830.81;;;2.23;98.15
70103;BME280;57470;50.034;15.256;2024-01-07T00:46:38;98844.34;;;2.14;98.68
70103;BME280;57470;50.034;15.256;2024-01-07T00:49:03;98841.44;;;2.20;97.90
70103;BME280;57470;50.034;15.256;2024-01-07T00:51:28;98839.09;;;1.94;97.47
70103;BME280;57470;50.034;15.256;2024-01-07T00:53:54;98835.75;;;1.70;98.40
70103;BME280;57470;50.034;15.256;2024-01-07T00:56:19;98839.78;;;1.79;99.90
70103;BME280;57470;50.034;15.256;2024-01-07T00:58:45;98853.78;;;1.98;99.18
70103;BME280;57470;50.034;15.256;2024-01-07T01:01:10;98853.97;;;1.53;99.02
70103;BME280;57470;50.034;15.256;2024-01-07T01:03:35;98846.81;;;1.36;100.00
70103;BME280;57470;50.034;15.256;2024-01-07T01:06:01;98850.81;;;1.45;100.00
70103;BME280;57470;50.034;15.256;2024-01-07T01:08:27;98853.38;;;1.46;100.00
70103;BME280;57470;50.034;15.256;2024-01-07T01:10:53;98857.91;;;1.63;99.02
70103;BME280;57470;50.034;15.256;2024-01-07T01:13:18;98861.84;;;1.11;100.00
70103;BME280;57470;50.034;15.256;2024-01-07T01:15:44;98860.06;;;1.11;99.17
70103;BME280;57470;50.034;15.256;2024-01-07T01:18:10;98860.28;;;1.07;99.28
70103;BME280;57470;50.034;15.256;2024-01-07T01:20:35;98859.91;;;1.36;99.14
70103;BME280;57470;50.034;15.256;2024-01-07T01:23:01;98869.00;;;1.49;98.24
70103;BME280;57470;50.034;15.256;2024-01-07T01:25:27;98862.06;;;0.83;100.00
70103;BME280;57470;50.034;15.256;2024-01-07T01:27:52;98868.41;;;0.78;99.70
70103;BME280;57470;50.034;15.256;2024-01-07T01:30:17;98875.63;;;1.16;99.42
70103;BME280;57470;50.034;15.256;2024-01-07T01:32:43;98870.06;;;1.02;99.46
70103;BME280;57470;50.034;15.256;2024-01-07T01:35:10;98859.03;;;0.94;98.61
70103;BME280;57470;50.034;15.256;2024-01-07T01:37:36;98869.81;;;0.86;98.15
70103;BME280;57470;50.034;15.256;2024-01-07T01:40:02;98878.97;;;0.98;97.98
70103;BME280;57470;50.034;15.256;2024-01-07T01:42:28;98872.38;;;0.88;97.75
70103;BME280;57470;50.034;15.256;2024-01-07T01:44:54;98878.75;;;1.02;96.92
70103;BME280;57470;50.034;15.256;2024-01-07T01:47:22;98881.81;;;0.92;96.43
70103;BME280;57470;50.034;15.256;2024-01-07T01:49:48;98877.38;;;0.94;96.13
70103;BME280;57470;50.034;15.256;2024-01-07T01:52:14;98882.53;;;1.17;95.96
70103;BME280;57470;50.034;15.256;2024-01-07T01:54:40;98880.59;;;0.79;95.68
70103;BME280;57470;50.034;15.256;2024-01-07T01:57:05;98878.78;;;1.24;96.12
70103;BME280;57470;50.034;15.256;2024-01-07T01:59:31;98871.56;;;1.07;96.00
70103;BME280;57470;50.034;15.256;2024-01-07T02:01:59;98871.63;;;0.84;96.25
70103;BME280;57470;50.034;15.256;2024-01-07T02:04:24;98871.31;;;0.70;96.82
70103;BME280;57470;50.034;15.256;2024-01-07T02:06:50;98867.41;;;0.58;96.73
70103;BME280;57470;50.034;15.256;2024-01-07T02:09:15;98876.88;;;0.84;95.89
70103;BME280;57470;50.034;15.256;2024-01-07T02:11:41;98869.63;;;0.69;95.54
70103;BME280;57470;50.034;15.256;2024-01-07T02:14:06;98879.34;;;0.65;95.02
70103;BME280;57470;50.034;15.256;2024-01-07T02:16:32;98884.97;;;0.78;95.08
70103;BME280;57470;50.034;15.256;2024-01-07T02:18:58;98885.47;;;0.88;95.72
70103;BME280;57470;50.034;15.256;2024-01-07T02:21:24;98890.09;;;1.25;95.62
70103;BME280;57470;50.034;15.256;2024-01-07T02:23:51;98891.06;;;0.79;95.25
70103;BME280;57470;50.034;15.256;2024-01-07T02:26:18;98889.34;;;0.78;95.04
70103;BME280;57470;50.034;15.256;2024-01-07T02:28:45;98896.59;;;0.93;94.81
70103;BME280;57470;50.034;15.256;2024-01-07T02:31:12;98899.53;;;1.07;94.22
70103;BME280;57470;50.034;15.256;2024-01-07T02:33:39;98902.53;;;0.98;94.11
70103;BME280;57470;50.034;15.256;2024-01-07T02:36:06;98897.25;;;0.76;95.00
70103;BME280;57470;50.034;15.256;2024-01-07T02:38:33;98911.44;;;0.92;94.68
70103;BME280;57470;50.034;15.256;2024-01-07T02:41:01;98905.31;;;0.93;94.75
70103;BME280;57470;50.034;15.256;2024-01-07T02:43:30;98906.97;;;0.96;95.33
70103;BME280;57470;50.034;15.256;2024-01-07T02:45:57;98908.16;;;1.09;93.94
70103;BME280;57470;50.034;15.256;2024-01-07T02:48:23;98907.06;;;0.71;94.47
70103;BME280;57470;50.034;15.256;2024-01-07T02:50:51;98905.03;;;0.54;95.84
70103;BME280;57470;50.034;15.256;2024-01-07T02:53:18;98905.94;;;0.30;97.20
70103;BME280;57470;50.034;15.256;2024-01-07T02:55:45;98918.13;;;0.78;97.27
70103;BME280;57470;50.034;15.256;2024-01-07T02:58:11;98919.00;;;1.00;95.43
70103;BME280;57470;50.034;15.256;2024-01-07T03:00:38;98918.19;;;0.76;96.56
70103;BME280;57470;50.034;15.256;2024-01-07T03:03:05;98917.44;;;0.72;96.84
70103;BME280;57470;50.034;15.256;2024-01-07T03:05:32;98922.28;;;0.60;96.02
70103;BME280;57470;50.034;15.256;2024-01-07T03:08:00;98917.78;;;0.87;96.25
70103;BME280;57470;50.034;15.256;2024-01-07T03:10:27;98909.88;;;1.10;94.88
70103;BME280;57470;50.034;15.256;2024-01-07T03:12:54;98923.97;;;1.29;95.01
70103;BME280;57470;50.034;15.256;2024-01-07T03:15:20;98905.50;;;1.32;94.33
70103;BME280;57470;50.034;15.256;2024-01-07T03:17:47;98907.63;;;1.01;93.97
70103;BME280;57470;50.034;15.256;2024-01-07T03:20:13;98917.88;;;1.07;93.94
70103;BME280;57470;50.034;15.256;2024-01-07T03:22:38;98915.75;;;0.48;95.94
70103;BME280;57470;50.034;15.256;2024-01-07T03:25:04;98919.09;;;0.98;95.81
70103;BME280;57470;50.034;15.256;2024-01-07T03:27:30;98910.00;;;0.38;95.93
70103;BME280;57470;50.034;15.256;2024-01-07T03:29:55;98913.75;;;0.55;95.75
70103;BME280;57470;50.034;15.256;2024-01-07T03:32:20;98913.66;;;0.58;96.89
70103;BME280;57470;50.034;15.256;2024-01-07T03:34:46;98907.03;;;0.48;97.12
70103;BME280;57470;50.034;15.256;2024-01-07T03:37:11;98918.38;;;0.48;96.70
70103;BME280;57470;50.034;15.256;2024-01-07T03:39:36;98912.38;;;0.21;96.66
70103;BME280;57470;50.034;15.256;2024-01-07T03:42:02;98913.06;;;0.26;97.42
70103;BME280;57470;50.034;15.256;2024-01-07T03:44:27;98919.44;;;0.43;96.89
70103;BME280;57470;50.034;15.256;2024-01-07T03:46:53;98913.91;;;0.73;96.23
70103;BME280;57470;50.034;15.256;2024-01-07T03:49:18;98915.06;;;0.43;96.83
70103;BME280;57470;50.034;15.256;2024-01-07T03:51:44;98925.63;;;0.40;97.10
70103;BME280;57470;50.034;15.256;2024-01-07T03:54:09;98925.06;;;0.55;97.20
70103;BME280;57470;50.034;15.256;2024-01-07T03:56:34;98935.44;;;0.58;96.08
70103;BME280;57470;50.034;15.256;2024-01-07T03:59:00;98921.06;;;0.22;96.14
70103;BME280;57470;50.034;15.256;2024-01-07T04:01:25;98930.44;;;0.52;96.03
70103;BME280;57470;50.034;15.256;2024-01-07T04:03:51;98926.38;;;0.44;96.13
70103;BME280;57470;50.034;15.256;2024-01-07T04:06:16;98928.91;;;0.22;97.46
70103;BME280;57470;50.034;15.256;2024-01-07T04:08:42;98940.31;;;0.44;96.47
70103;BME280;57470;50.034;15.256;2024-01-07T04:11:07;98933.13;;;0.26;97.11
70103;BME280;57470;50.034;15.256;2024-01-07T04:13:32;98934.78;;;0.28;96.31
70103;BME280;57470;50.034;15.256;2024-01-07T04:15:58;98936.44;;;0.06;97.00
70103;BME280;57470;50.034;15.256;2024-01-07T04:18:23;98938.38;;;0.26;97.64
70103;BME280;57470;50.034;15.256;2024-01-07T04:20:49;98933.97;;;0.02;97.02
70103;BME280;57470;50.034;15.256;2024-01-07T04:23:14;98951.09;;;0.10;97.47
70103;BME280;57470;50.034;15.256;2024-01-07T04:25:39;98943.56;;;-0.24;97.70
70103;BME280;57470;50.034;15.256;2024-01-07T04:28:07;98947.06;;;-0.25;98.42
70103;BME280;57470;50.034;15.256;2024-01-07T04:30:33;98951.81;;;-0.10;97.98
70103;BME280;57470;50.034;15.256;2024-01-07T04:32:58;98963.13;;;0.16;98.49
70103;BME280;57470;50.034;15.256;2024-01-07T04:35:23;98955.00;;;-0.02;98.08
70103;BME280;57470;50.034;15.256;2024-01-07T04:37:49;98957.03;;;-0.10;98.18
70103;BME280;57470;50.034;15.256;2024-01-07T04:40:14;98974.03;;;0.02;97.63
70103;BME280;57470;50.034;15.256;2024-01-07T04:42:39;98971.75;;;-0.07;97.99
70103;BME280;57470;50.034;15.256;2024-01-07T04:45:05;98974.25;;;-0.04;98.44
70103;BME280;57470;50.034;15.256;2024-01-07T04:47:32;98976.59;;;-0.21;98.13
70103;BME280;57470;50.034;15.256;2024-01-07T04:50:01;98988.53;;;-0.14;98.45
70103;BME280;57470;50.034;15.256;2024-01-07T04:52:27;98996.13;;;-0.07;98.42
70103;BME280;57470;50.034;15.256;2024-01-07T04:54:53;98998.94;;;-0.13;98.21
70103;BME280;57470;50.034;15.256;2024-01-07T04:57:19;99000.63;;;0.15;96.97
70103;BME280;57470;50.034;15.256;2024-01-07T04:59:46;99004.94;;;-0.09;96.77
70103;BME280;57470;50.034;15.256;2024-01-07T05:02:11;99007.28;;;-0.02;96.63
70103;BME280;57470;50.034;15.256;2024-01-07T05:04:37;99002.06;;;-0.28;96.45
70103;BME280;57470;50.034;15.256;2024-01-07T05:07:03;99017.00;;;-0.05;98.13
70103;BME280;57470;50.034;15.256;2024-01-07T05:09:28;99007.00;;;-0.45;97.33
70103;BME280;57470;50.034;15.256;2024-01-07T05:11:54;99010.78;;;-0.27;97.51
70103;BME280;57470;50.034;15.256;2024-01-07T05:14:19;99019.53;;;0.23;97.61
70103;BME280;57470;50.034;15.256;2024-01-07T05:16:44;99013.13;;;0.07;98.00
70103;BME280;57470;50.034;15.256;2024-01-07T05:19:10;99013.47;;;-0.04;97.18
70103;BME280;57470;50.034;15.256;2024-01-07T05:21:35;99014.75;;;-0.17;97.76
70103;BME280;57470;50.034;15.256;2024-01-07T05:24:00;99011.81;;;-0.33;97.54
70103;BME280;57470;50.034;15.256;2024-01-07T05:26:26;99018.03;;;-0.37;97.38
70103;BME280;57470;50.034;15.256;2024-01-07T05:28:51;99017.19;;;-0.11;97.79
70103;BME280;57470;50.034;15.256;2024-01-07T05:31:17;99018.69;;;-0.30;98.12
70103;BME280;57470;50.034;15.256;2024-01-07T05:33:44;99026.00;;;-0.42;98.70
70103;BME280;57470;50.034;15.256;2024-01-07T05:36:10;99024.81;;;-0.87;99.83
70103;BME280;57470;50.034;15.256;2024-01-07T05:38:36;99033.44;;;-0.28;99.66
70103;BME280;57470;50.034;15.256;2024-01-07T05:41:01;99030.81;;;-0.56;99.38
70103;BME280;57470;50.034;15.256;2024-01-07T05:43:26;99031.19;;;-0.68;98.54
70103;BME280;57470;50.034;15.256;2024-01-07T05:45:52;99039.03;;;-0.68;98.26
70103;BME280;57470;50.034;15.256;2024-01-07T05:48:18;99047.97;;;-0.77;99.07
70103;BME280;57470;50.034;15.256;2024-01-07T05:50:44;99060.50;;;-0.30;98.96
70103;BME280;57470;50.034;15.256;2024-01-07T05:53:09;99061.56;;;-0.36;98.41
70103;BME280;57470;50.034;15.256;2024-01-07T05:55:34;99061.16;;;-0.24;97.66
70103;BME280;57470;50.034;15.256;2024-01-07T05:58:00;99056.16;;;-0.59;97.34
70103;BME280;57470;50.034;15.256;2024-01-07T06:00:25;99068.50;;;-0.09;96.27
70103;BME280;57470;50.034;15.256;2024-01-07T06:02:50;99073.25;;;0.07;95.71
70103;BME280;57470;50.034;15.256;2024-01-07T06:05:16;99066.41;;;-0.25;95.20
70103;BME280;57470;50.034;15.256;2024-01-07T06:07:41;99075.84;;;-0.20;94.76
70103;BME280;57470;50.034;15.256;2024-01-07T06:10:07;99063.19;;;-0.33;95.76
70103;BME280;57470;50.034;15.256;2024-01-07T06:12:32;99076.19;;;-0.30;96.29
70103;BME280;57470;50.034;15.256;2024-01-07T06:14:58;99069.09;;;-0.55;96.43
70103;BME280;57470;50.034;15.256;2024-01-07T06:17:23;99065.41;;;-0.77;96.66
70103;BME280;57470;50.034;15.256;2024-01-07T06:19:49;99067.47;;;-0.59;96.18
70103;BME280;57470;50.034;15.256;2024-01-07T06:22:14;99075.38;;;-0.62;96.10
70103;BME280;57470;50.034;15.256;2024-01-07T06:24:39;99069.09;;;-0.55;96.02
70103;BME280;57470;50.034;15.256;2024-01-07T06:27:05;99069.09;;;-0.55;94.93
70103;BME280;57470;50.034;15.256;2024-01-07T06:29:30;99085.78;;;-0.31;95.74
70103;BME280;57470;50.034;15.256;2024-01-07T06:31:55;99085.31;;;-0.73;95.74
70103;BME280;57470;50.034;15.256;2024-01-07T06:34:21;99091.06;;;-0.91;96.38
70103;BME280;57470;50.034;15.256;2024-01-07T06:36:46;99097.56;;;-0.75;96.62
70103;BME280;57470;50.034;15.256;2024-01-07T06:39:12;99100.13;;;-0.73;96.67
70103;BME280;57470;50.034;15.256;2024-01-07T06:41:38;99094.03;;;-0.74;96.29
70103;BME280;57470;50.034;15.256;2024-01-07T06:44:03;99110.03;;;-0.55;95.69
70103;BME280;57470;50.034;15.256;2024-01-07T06:46:29;99107.72;;;-0.66;95.90
70103;BME280;57470;50.034;15.256;2024-01-07T06:48:54;99110.13;;;-0.58;96.10
70103;BME280;57470;50.034;15.256;2024-01-07T06:51:20;99105.13;;;-0.97;96.00
70103;BME280;57470;50.034;15.256;2024-01-07T06:53:45;99114.16;;;-0.78;96.55
70103;BME280;57470;50.034;15.256;2024-01-07T06:56:10;99112.88;;;-0.94;97.39
70103;BME280;57470;50.034;15.256;2024-01-07T06:58:36;99113.81;;;-0.96;97.54
70103;BME280;57470;50.034;15.256;2024-01-07T07:01:01;99114.22;;;-1.10;97.54
70103;BME280;57470;50.034;15.256;2024-01-07T07:03:27;99120.78;;;-0.97;97.97
70103;BME280;57470;50.034;15.256;2024-01-07T07:05:53;99121.09;;;-1.07;97.40
70103;BME280;57470;50.034;15.256;2024-01-07T07:08:18;99132.31;;;-1.04;97.29
70103;BME280;57470;50.034;15.256;2024-01-07T07:10:43;99144.28;;;-0.97;96.95
70103;BME280;57470;50.034;15.256;2024-01-07T07:13:09;99147.78;;;-0.98;97.40
70103;BME280;57470;50.034;15.256;2024-01-07T07:15:34;99151.78;;;-0.85;97.42
70103;BME280;57470;50.034;15.256;2024-01-07T07:18:01;99153.50;;;-0.84;96.73
70103;BME280;57470;50.034;15.256;2024-01-07T07:20:26;99150.81;;;-0.81;96.23
70103;BME280;57470;50.034;15.256;2024-01-07T07:22:51;99167.22;;;-0.77;96.65
70103;BME280;57470;50.034;15.256;2024-01-07T07:25:17;99160.34;;;-1.12;97.53
70103;BME280;57470;50.034;15.256;2024-01-07T07:27:42;99162.44;;;-0.92;97.04
70103;BME280;57470;50.034;15.256;2024-01-07T07:30:08;99171.16;;;-0.62;96.85
70103;BME280;57470;50.034;15.256;2024-01-07T07:32:34;99168.91;;;-1.07;97.46
70103;BME280;57470;50.034;15.256;2024-01-07T07:35:00;99165.97;;;-0.95;97.40
70103;BME280;57470;50.034;15.256;2024-01-07T07:37:26;99184.66;;;-0.78;97.30
70103;BME280;57470;50.034;15.256;2024-01-07T07:39:51;99185.78;;;-0.55;97.08
70103;BME280;57470;50.034;15.256;2024-01-07T07:42:16;99188.34;;;-0.24;96.40
70103;BME280;57470;50.034;15.256;2024-01-07T07:44:42;99190.16;;;0.02;95.08
70103;BME280;57470;50.034;15.256;2024-01-07T07:47:08;99173.06;;;-0.67;94.93
70103;BME280;57470;50.034;15.256;2024-01-07T07:49:36;99188.28;;;-0.52;95.39
70103;BME280;57470;50.034;15.256;2024-01-07T07:52:02;99200.16;;;-0.11;95.21
70103;BME280;57470;50.034;15.256;2024-01-07T07:54:28;99198.91;;;0.00;94.41
70103;BME280;57470;50.034;15.256;2024-01-07T07:56:53;99195.19;;;-0.50;95.43
70103;BME280;57470;50.034;15.256;2024-01-07T07:59:18;99208.94;;;-0.45;96.49
70103;BME280;57470;50.034;15.256;2024-01-07T08:01:45;99206.19;;;-0.39;95.04
70103;BME280;57470;50.034;15.256;2024-01-07T08:04:10;99215.25;;;-0.21;95.84
70103;BME280;57470;50.034;15.256;2024-01-07T08:06:36;99216.63;;;-0.39;94.11
70103;BME280;57470;50.034;15.256;2024-01-07T08:09:01;99221.72;;;-0.05;93.92
70103;BME280;57470;50.034;15.256;2024-01-07T08:11:27;99223.53;;;-0.36;94.38
70103;BME280;57470;50.034;15.256;2024-01-07T08:13:54;99227.75;;;-0.01;93.99
70103;BME280;57470;50.034;15.256;2024-01-07T08:16:20;99223.09;;;-0.21;93.69
70103;BME280;57470;50.034;15.256;2024-01-07T08:18:45;99231.56;;;-0.13;93.62
70103;BME280;57470;50.034;15.256;2024-01-07T08:21:11;99222.16;;;-0.18;92.96
70103;BME280;57470;50.034;15.256;2024-01-07T08:23:37;99228.13;;;0.15;91.95
70103;BME280;57470;50.034;15.256;2024-01-07T08:26:02;99235.41;;;0.33;91.40
70103;BME280;57470;50.034;15.256;2024-01-07T08:28:28;99225.72;;;-0.21;91.71
70103;BME280;57470;50.034;15.256;2024-01-07T08:30:53;99233.53;;;0.36;91.44
70103;BME280;57470;50.034;15.256;2024-01-07T08:33:19;99231.50;;;0.18;92.02
70103;BME280;57470;50.034;15.256;2024-01-07T08:35:44;99231.59;;;-0.14;91.39
70103;BME280;57470;50.034;15.256;2024-01-07T08:38:10;99239.22;;;0.23;91.63
70103;BME280;57470;50.034;15.256;2024-01-07T08:40:35;99234.84;;;-0.06;90.94
70103;BME280;57470;50.034;15.256;2024-01-07T08:43:02;99233.31;;;0.16;90.97
70103;BME280;57470;50.034;15.256;2024-01-07T08:45:27;99224.69;;;-0.17;89.84
70103;BME280;57470;50.034;15.256;2024-01-07T08:47:53;99244.47;;;0.21;90.36
70103;BME280;57470;50.034;15.256;2024-01-07T08:50:18;99236.88;;;-0.16;89.93
70103;BME280;57470;50.034;15.256;2024-01-07T08:52:43;99239.44;;;-0.14;90.47
70103;BME280;57470;50.034;15.256;2024-01-07T08:55:09;99243.09;;;0.10;89.79
70103;BME280;57470;50.034;15.256;2024-01-07T08:57:36;99232.03;;;-0.28;89.92
70103;BME280;57470;50.034;15.256;2024-01-07T09:00:03;99245.69;;;0.10;88.94
70103;BME280;57470;50.034;15.256;2024-01-07T09:02:29;99247.44;;;0.09;88.86
70103;BME280;57470;50.034;15.256;2024-01-07T09:04:55;99252.19;;;0.26;88.50
70103;BME280;57470;50.034;15.256;2024-01-07T09:07:23;99248.09;;;0.17;88.20
70103;BME280;57470;50.034;15.256;2024-01-07T09:09:48;99261.25;;;0.14;87.69
70103;BME280;57470;50.034;15.256;2024-01-07T09:12:13;99255.28;;;-0.19;87.10
70103;BME280;57470;50.034;15.256;2024-01-07T09:14:39;99261.81;;;0.25;87.68
70103;BME280;57470;50.034;15.256;2024-01-07T09:17:05;99273.09;;;0.82;86.93
70103;BME280;57470;50.034;15.256;2024-01-07T09:19:30;99267.75;;;0.58;86.85
70103;BME280;57470;50.034;15.256;2024-01-07T09:21:56;99263.97;;;0.39;85.89
70103;BME280;57470;50.034;15.256;2024-01-07T09:24:21;99258.97;;;0.04;86.64
70103;BME280;57470;50.034;15.256;2024-01-07T09:26:46;99270.25;;;0.89;86.40
70103;BME280;57470;50.034;15.256;2024-01-07T09:29:12;99268.19;;;0.45;85.42
70103;BME280;57470;50.034;15.256;2024-01-07T09:31:39;99264.47;;;0.52;85.31
70103;BME280;57470;50.034;15.256;2024-01-07T09:34:04;99272.81;;;0.63;84.64
70103;BME280;57470;50.034;15.256;2024-01-07T09:36:32;99267.13;;;0.50;84.69
70103;BME280;57470;50.034;15.256;2024-01-07T09:38:57;99264.44;;;0.53;84.30
70103;BME280;57470;50.034;15.256;2024-01-07T09:41:23;99253.59;;;0.36;84.30
70103;BME280;57470;50.034;15.256;2024-01-07T09:43:50;99280.25;;;1.03;84.10
70103;BME280;57470;50.034;15.256;2024-01-07T09:46:17;99274.25;;;0.99;83.56
70103;BME280;57470;50.034;15.256;2024-01-07T09:48:42;99273.44;;;1.24;83.21
70103;BME280;57470;50.034;15.256;2024-01-07T09:51:09;99273.66;;;0.91;83.96
70103;BME280;57470;50.034;15.256;2024-01-07T09:53:35;99276.06;;;1.24;83.20
70103;BME280;57470;50.034;15.256;2024-01-07T09:56:08;99275.84;;;1.30;82.72
70103;BME280;57470;50.034;15.256;2024-01-07T09:58:37;99264.06;;;1.17;83.07
70103;BME280;57470;50.034;15.256;2024-01-07T10:01:02;99279.66;;;1.46;81.56
70103;BME280;57470;50.034;15.256;2024-01-07T10:03:30;99279.47;;;1.52;81.74
70103;BME280;57470;50.034;15.256;2024-01-07T10:05:55;99275.78;;;1.81;81.01
70103;BME280;57470;50.034;15.256;2024-01-07T10:08:21;99283.34;;;1.65;81.26
70103;BME280;57470;50.034;15.256;2024-01-07T10:10:48;99266.59;;;1.20;81.20
70103;BME280;57470;50.034;15.256;2024-01-07T10:13:13;99276.13;;;1.47;81.62
70103;BME280;57470;50.034;15.256;2024-01-07T10:15:39;99276.16;;;1.45;80.14
70103;BME280;57470;50.034;15.256;2024-01-07T10:18:06;99271.66;;;1.74;81.17
70103;BME280;57470;50.034;15.256;2024-01-07T10:20:32;99277.13;;;1.68;80.86
70103;BME280;57470;50.034;15.256;2024-01-07T10:22:59;99273.38;;;1.75;81.04
70103;BME280;57470;50.034;15.256;2024-01-07T10:25:24;99272.09;;;1.86;80.29
70103;BME280;57470;50.034;15.256;2024-01-07T10:27:50;99273.66;;;2.37;80.12
70103;BME280;57470;50.034;15.256;2024-01-07T10:30:16;99280.16;;;2.50;79.27
70103;BME280;57470;50.034;15.256;2024-01-07T10:32:42;99280.16;;;2.50;79.18
70103;BME280;57470;50.034;15.256;2024-01-07T10:35:12;99271.16;;;2.11;78.52
70103;BME280;57470;50.034;15.256;2024-01-07T10:37:37;99276.69;;;2.26;79.54
70103;BME280;57470;50.034;15.256;2024-01-07T10:40:03;99270.75;;;1.98;80.25
70103;BME280;57470;50.034;15.256;2024-01-07T10:42:33;99269.16;;;1.71;80.63
70103;BME280;57470;50.034;15.256;2024-01-07T10:44:59;99267.47;;;1.93;81.16
70103;BME280;57470;50.034;15.256;2024-01-07T10:47:29;99277.97;;;1.93;80.21
70103;BME280;57470;50.034;15.256;2024-01-07T10:49:57;99271.75;;;2.19;80.49
70103;BME280;57470;50.034;15.256;2024-01-07T10:52:24;99261.94;;;2.01;80.03
70103;BME280;57470;50.034;15.256;2024-01-07T10:54:52;99276.88;;;1.99;80.66
70103;BME280;57470;50.034;15.256;2024-01-07T10:57:31;99276.94;;;2.20;80.48
70103;BME280;57470;50.034;15.256;2024-01-07T11:00:00;99277.94;;;2.16;80.23
70103;BME280;57470;50.034;15.256;2024-01-07T11:02:26;99285.47;;;2.49;79.08
70103;BME280;57470;50.034;15.256;2024-01-07T11:05:03;99272.69;;;2.40;79.07
70103;BME280;57470;50.034;15.256;2024-01-07T11:10:55;99279.91;;;2.56;79.15
70103;BME280;57470;50.034;15.256;2024-01-07T11:13:32;99274.38;;;1.71;78.19
70103;BME280;57470;50.034;15.256;2024-01-07T11:15:59;99270.41;;;1.61;77.26
70103;BME280;57470;50.034;15.256;2024-01-07T11:18:26;99286.13;;;1.61;79.41
70103;BME280;57470;50.034;15.256;2024-01-07T11:20:58;99277.03;;;2.17;79.29
70103;BME280;57470;50.034;15.256;2024-01-07T11:23:34;99270.84;;;1.97;76.76
70103;BME280;57470;50.034;15.256;2024-01-07T11:26:05;99271.34;;;1.83;78.58
70103;BME280;57470;50.034;15.256;2024-01-07T11:28:58;99274.88;;;1.82;77.19
70103;BME280;57470;50.034;15.256;2024-01-07T11:34:04;99268.81;;;1.32;76.81
70103;BME280;57470;50.034;15.256;2024-01-07T11:36:29;99278.94;;;1.66;78.53
70103;BME280;57470;50.034;15.256;2024-01-07T11:38:55;99281.16;;;2.01;76.98
70103;BME280;57470;50.034;15.256;2024-01-07T11:41:21;99271.56;;;2.00;76.30
70103;BME280;57470;50.034;15.256;2024-01-07T11:43:54;99278.56;;;2.00;77.54
70103;BME280;57470;50.034;15.256;2024-01-07T11:46:21;99280.34;;;2.22;77.15
70103;BME280;57470;50.034;15.256;2024-01-07T11:48:46;99280.47;;;2.19;76.61
70103;BME280;57470;50.034;15.256;2024-01-07T11:51:12;99279.28;;;2.05;77.83
70103;BME280;57470;50.034;15.256;2024-01-07T11:53:37;99289.00;;;2.24;77.98
70103;BME280;57470;50.034;15.256;2024-01-07T11:56:03;99272.94;;;1.87;76.39
70103;BME280;57470;50.034;15.256;2024-01-07T11:58:30;99286.63;;;1.70;78.51
70103;BME280;57470;50.034;15.256;2024-01-07T12:00:55;99272.75;;;0.92;77.90
70103;BME280;57470;50.034;15.256;2024-01-07T12:03:20;99283.88;;;1.50;77.96
70103;BME280;57470;50.034;15.256;2024-01-07T12:05:46;99284.56;;;1.30;78.64
70103;BME280;57470;50.034;15.256;2024-01-07T12:08:13;99294.06;;;1.59;78.76
70103;BME280;57470;50.034;15.256;2024-01-07T12:10:39;99283.13;;;1.22;77.40
70103;BME280;57470;50.034;15.256;2024-01-07T12:13:05;99277.88;;;1.46;77.12
70103;BME280;57470;50.034;15.256;2024-01-07T12:15:31;99292.63;;;1.74;77.45
70103;BME280;57470;50.034;15.256;2024-01-07T12:17:58;99282.16;;;1.49;76.27
70103;BME280;57470;50.034;15.256;2024-01-07T12:20:26;99290.22;;;2.16;77.01
70103;BME280;57470;50.034;15.256;2024-01-07T12:22:51;99295.41;;;1.94;76.76
70103;BME280;57470;50.034;15.256;2024-01-07T12:25:21;99283.63;;;0.80;77.56
70103;BME280;57470;50.034;15.256;2024-01-07T12:27:50;99288.78;;;1.34;75.46
70103;BME280;57470;50.034;15.256;2024-01-07T12:30:19;99280.41;;;1.49;75.99
70103;BME280;57470;50.034;15.256;2024-01-07T12:32:44;99292.56;;;1.52;75.62
70103;BME280;57470;50.034;15.256;2024-01-07T12:35:10;99293.34;;;1.79;75.46
70103;BME280;57470;50.034;15.256;2024-01-07T12:37:37;99293.47;;;2.22;75.04
70103;BME280;57470;50.034;15.256;2024-01-07T12:40:03;99292.88;;;1.91;73.71
70103;BME280;57470;50.034;15.256;2024-01-07T12:42:29;99302.97;;;2.25;73.96
70103;BME280;57470;50.034;15.256;2024-01-07T12:44:58;99303.72;;;2.29;74.34
70103;BME280;57470;50.034;15.256;2024-01-07T12:47:24;99302.13;;;2.01;74.66
70103;BME280;57470;50.034;15.256;2024-01-07T12:49:49;99290.75;;;1.28;74.28
70103;BME280;57470;50.034;15.256;2024-01-07T12:52:15;99288.88;;;1.06;74.93
70103;BME280;57470;50.034;15.256;2024-01-07T12:54:40;99303.50;;;1.38;75.06
70103;BME280;57470;50.034;15.256;2024-01-07T12:57:06;99315.22;;;1.53;74.56